Observation data for Denver City on 01/08/2018      Previous  Date  Next       Current Mesonet Observations  Soil Data  Daily Summary Page  Observations in Plain Language
KDVS 080600Z 33007KT M00/M06 A3019 RMK A01 T10041058  RH  067%=      5-min Rain = 0
KDVS 080605Z 34007KT M01/M06 A3019 RMK A01 T10051056  RH  068%=      5-min Rain = 0
KDVS 080610Z 34007KT 00/M05 A3019 RMK A01 T00021051  RH  068%=      5-min Rain = 0
KDVS 080615Z 33008KT 01/M05 A302 RMK A01 T00051052  RH  066%=      5-min Rain = 0
KDVS 080620Z 32008KT 00/M05 A302 RMK A01 T00011054  RH  066%=      5-min Rain = 0
KDVS 080625Z 32008KT M00/M06 A302 RMK A01 T10021055  RH  067%=      5-min Rain = 0
KDVS 080630Z 32008KT M00/M05 A3021 RMK A01 T10021054  RH  068%=      5-min Rain = 0
KDVS 080635Z 32008KT M00/M05 A302 RMK A01 T10021054  RH  068%=      5-min Rain = 0
KDVS 080640Z 32008KT M00/M06 A302 RMK A01 T10031056  RH  068%=      5-min Rain = 0
KDVS 080645Z 31008KT M00/M05 A302 RMK A01 T10041054  RH  069%=      5-min Rain = 0
KDVS 080650Z 31008KT M00/M05 A302 RMK A01 T10021053  RH  069%=      5-min Rain = 0
KDVS 080655Z 31008KT M00/M06 A3021 RMK A01 T10041055  RH  069%=      5-min Rain = 0
KDVS 080700Z 31008KT M01/M06 A3021 RMK A01 T10051056  RH  069%=      5-min Rain = 0
KDVS 080705Z 30008KT M01/M06 A3021 RMK A01 T10081057  RH  069%=      5-min Rain = 0
KDVS 080710Z 30008KT M01/M06 A3021 RMK A01 T10111057  RH  071%=      5-min Rain = 0
KDVS 080715Z 31008KT M01/M06 A3021 RMK A01 T10091056  RH  071%=      5-min Rain = 0
KDVS 080720Z 33007KT M01/M06 A302 RMK A01 T10091056  RH  071%=      5-min Rain = 0
KDVS 080725Z 33007KT M01/M05 A302 RMK A01 T10071053  RH  071%=      5-min Rain = 0
KDVS 080730Z 33008KT M00/M05 A302 RMK A01 T10031052  RH  070%=      5-min Rain = 0
KDVS 080735Z 32008KT M00/M05 A302 RMK A01 T10031054  RH  069%=      5-min Rain = 0
KDVS 080740Z 31008KT M01/M05 A302 RMK A01 T10061054  RH  070%=      5-min Rain = 0
KDVS 080745Z 31007KT M01/M06 A302 RMK A01 T10071056  RH  070%=      5-min Rain = 0
KDVS 080750Z 31007KT M01/M06 A302 RMK A01 T10081056  RH  070%=      5-min Rain = 0
KDVS 080755Z 32007KT M01/M06 A302 RMK A01 T10101058  RH  070%=      5-min Rain = 0
KDVS 080800Z 32008KT M01/M06 A302 RMK A01 T10111057  RH  071%=      5-min Rain = 0
KDVS 080805Z 31008KT M01/M06 A3021 RMK A01 T10091056  RH  071%=      5-min Rain = 0
KDVS 080810Z 31008KT M01/M06 A3021 RMK A01 T10081055  RH  071%=      5-min Rain = 0
KDVS 080815Z 32008KT M01/M06 A302 RMK A01 T10091056  RH  071%=      5-min Rain = 0
KDVS 080820Z 32007KT M01/M06 A302 RMK A01 T10111056  RH  071%=      5-min Rain = 0
KDVS 080825Z 33007KT M01/M06 A302 RMK A01 T10111055  RH  073%=      5-min Rain = 0
KDVS 080830Z 34006KT M01/M05 A302 RMK A01 T10071052  RH  072%=      5-min Rain = 0
KDVS 080835Z 35007KT M01/M05 A3019 RMK A01 T10061053  RH  071%=      5-min Rain = 0
KDVS 080840Z 35007KT M01/M06 A3019 RMK A01 T10111055  RH  072%=      5-min Rain = 0
KDVS 080845Z 34007KT M01/M06 A3019 RMK A01 T10131055  RH  073%=      5-min Rain = 0
KDVS 080850Z 32007KT M01/M06 A302 RMK A01 T10131057  RH  072%=      5-min Rain = 0
KDVS 080855Z 31007KT M02/M06 A302 RMK A01 T10161058  RH  073%=      5-min Rain = 0
KDVS 080900Z 31007KT M02/M06 A302 RMK A01 T10161058  RH  073%=      5-min Rain = 0
KDVS 080905Z 31007KT M02/M06 A302 RMK A01 T10181060  RH  073%=      5-min Rain = 0
KDVS 080910Z 31008KT M02/M06 A302 RMK A01 T10221062  RH  074%=      5-min Rain = 0
KDVS 080915Z 31008KT M03/M06 A302 RMK A01 T10251064  RH  075%=      5-min Rain = 0
KDVS 080920Z 29008KT M03/M06 A302 RMK A01 T10271064  RH  075%=      5-min Rain = 0
KDVS 080925Z 30008KT M03/M06 A302 RMK A01 T10261063  RH  076%=      5-min Rain = 0
KDVS 080930Z 29008KT M03/M06 A3021 RMK A01 T10261063  RH  076%=      5-min Rain = 0
KDVS 080935Z 30008KT M03/M06 A3021 RMK A01 T10271064  RH  076%=      5-min Rain = 0
KDVS 080940Z 30008KT M03/M06 A3021 RMK A01 T10271064  RH  076%=      5-min Rain = 0
KDVS 080945Z 30008KT M03/M06 A3021 RMK A01 T10271063  RH  076%=      5-min Rain = 0
KDVS 080950Z 30007KT M03/M06 A3021 RMK A01 T10251062  RH  076%=      5-min Rain = 0
KDVS 080955Z 30008KT M02/M06 A3021 RMK A01 T10231061  RH  076%=      5-min Rain = 0
KDVS 081000Z 31008KT M02/M06 A3021 RMK A01 T10231062  RH  075%=      5-min Rain = 0
KDVS 081005Z 30008KT M02/M06 A3021 RMK A01 T10241062  RH  075%=      5-min Rain = 0
KDVS 081010Z 30008KT M02/M06 A3021 RMK A01 T10231061  RH  075%=      5-min Rain = 0
KDVS 081015Z 30008KT M02/M06 A3021 RMK A01 T10231061  RH  075%=      5-min Rain = 0
KDVS 081020Z 31008KT M02/M06 A3021 RMK A01 T10231060  RH  076%=      5-min Rain = 0
KDVS 081025Z 31008KT M02/M06 A3021 RMK A01 T10231060  RH  076%=      5-min Rain = 0
KDVS 081030Z 31008KT M02/M06 A3021 RMK A01 T10231060  RH  076%=      5-min Rain = 0
KDVS 081035Z 31008KT M02/M06 A3021 RMK A01 T10241060  RH  076%=      5-min Rain = 0
KDVS 081040Z 31008KT M02/M06 A3021 RMK A01 T10241059  RH  077%=      5-min Rain = 0
KDVS 081045Z 30008KT M02/M06 A3021 RMK A01 T10231058  RH  077%=      5-min Rain = 0
KDVS 081050Z 30008KT M02/M06 A302 RMK A01 T10231057  RH  077%=      5-min Rain = 0
KDVS 081055Z 30008KT M02/M06 A3021 RMK A01 T10231057  RH  078%=      5-min Rain = 0
KDVS 081100Z 30008KT M02/M06 A302 RMK A01 T10221056  RH  078%=      5-min Rain = 0
KDVS 081105Z 30008KT M02/M06 A302 RMK A01 T10211055  RH  078%=      5-min Rain = 0
KDVS 081110Z 30008KT M02/M06 A302 RMK A01 T10211056  RH  077%=      5-min Rain = 0
KDVS 081115Z 30008KT M02/M06 A302 RMK A01 T10221056  RH  077%=      5-min Rain = 0
KDVS 081120Z 30008KT M02/M06 A302 RMK A01 T10221057  RH  077%=      5-min Rain = 0
KDVS 081125Z 30008KT M02/M06 A302 RMK A01 T10231057  RH  078%=      5-min Rain = 0
KDVS 081130Z 30008KT M02/M06 A302 RMK A01 T10241057  RH  078%=      5-min Rain = 0
KDVS 081135Z 30008KT M02/M06 A302 RMK A01 T10241058  RH  078%=      5-min Rain = 0
KDVS 081140Z 29008KT M02/M06 A302 RMK A01 T10241059  RH  078%=      5-min Rain = 0
KDVS 081145Z 29008KT M03/M06 A302 RMK A01 T10251059  RH  077%=      5-min Rain = 0
KDVS 081150Z 29007KT M03/M06 A302 RMK A01 T10251059  RH  077%=      5-min Rain = 0
KDVS 081155Z 29007KT M03/M06 A302 RMK A01 T10261060  RH  077%=      5-min Rain = 0
KDVS 081200Z 29007KT M03/M06 A302 RMK A01 T10261060  RH  078%=      5-min Rain = 0
KDVS 081205Z 29007KT M03/M06 A302 RMK A01 T10261061  RH  077%=      5-min Rain = 0
KDVS 081210Z 29007KT M03/M06 A302 RMK A01 T10271062  RH  077%=      5-min Rain = 0
KDVS 081215Z 29008KT M03/M06 A302 RMK A01 T10281062  RH  077%=      5-min Rain = 0
KDVS 081220Z 30008KT M03/M06 A3021 RMK A01 T10301064  RH  078%=      5-min Rain = 0
KDVS 081225Z 30008KT M03/M06 A3021 RMK A01 T10321064  RH  078%=      5-min Rain = 0
KDVS 081230Z 30008KT M03/M06 A3021 RMK A01 T10321064  RH  078%=      5-min Rain = 0
KDVS 081235Z 31008KT M03/M06 A302 RMK A01 T10311064  RH  078%=      5-min Rain = 0
KDVS 081240Z 31008KT M03/M06 A3021 RMK A01 T10301062  RH  078%=      5-min Rain = 0
KDVS 081245Z 31007KT M03/M06 A3021 RMK A01 T10281062  RH  078%=      5-min Rain = 0
KDVS 081250Z 31007KT M03/M06 A3021 RMK A01 T10271061  RH  078%=      5-min Rain = 0
KDVS 081255Z 31007KT M03/M06 A3021 RMK A01 T10271061  RH  078%=      5-min Rain = 0
KDVS 081300Z 30007KT M03/M06 A3021 RMK A01 T10271061  RH  078%=      5-min Rain = 0
KDVS 081305Z 30007KT M03/M06 A3022 RMK A01 T10291062  RH  078%=      5-min Rain = 0
KDVS 081310Z 31008KT M03/M06 A3022 RMK A01 T10301063  RH  078%=      5-min Rain = 0
KDVS 081315Z 30007KT M03/M06 A3022 RMK A01 T10311063  RH  079%=      5-min Rain = 0
KDVS 081320Z 30008KT M03/M06 A3023 RMK A01 T10321063  RH  079%=      5-min Rain = 0
KDVS 081325Z 30007KT M03/M06 A3023 RMK A01 T10331063  RH  079%=      5-min Rain = 0
KDVS 081330Z 30008KT M03/M06 A3023 RMK A01 T10321063  RH  080%=      5-min Rain = 0
KDVS 081335Z 30008KT M03/M06 A3023 RMK A01 T10321063  RH  079%=      5-min Rain = 0
KDVS 081340Z 30007KT M03/M06 A3023 RMK A01 T10321063  RH  079%=      5-min Rain = 0
KDVS 081345Z 30007KT M03/M06 A3023 RMK A01 T10321064  RH  079%=      5-min Rain = 0
KDVS 081350Z 30008KT M03/M06 A3023 RMK A01 T10331064  RH  079%=      5-min Rain = 0
KDVS 081355Z 30008KT M03/M07 A3023 RMK A01 T10331065  RH  079%=      5-min Rain = 0
KDVS 081400Z 30007KT M03/M06 A3023 RMK A01 T10331064  RH  079%=      5-min Rain = 0
KDVS 081405Z 29008KT M03/M07 A3023 RMK A01 T10331065  RH  079%=      5-min Rain = 0
KDVS 081410Z 29007KT M03/M06 A3023 RMK A01 T10331064  RH  079%=      5-min Rain = 0
KDVS 081415Z 29007KT M03/M06 A3023 RMK A01 T10321064  RH  079%=      5-min Rain = 0
KDVS 081420Z 28006KT M03/M06 A3023 RMK A01 T10311063  RH  078%=      5-min Rain = 0
KDVS 081425Z 29006KT M03/M06 A3023 RMK A01 T10301063  RH  078%=      5-min Rain = 0
KDVS 081430Z 29007KT M03/M06 A3024 RMK A01 T10291063  RH  077%=      5-min Rain = 0
KDVS 081435Z 29006KT M03/M06 A3023 RMK A01 T10281063  RH  077%=      5-min Rain = 0
KDVS 081440Z 29006KT M03/M06 A3024 RMK A01 T10261062  RH  077%=      5-min Rain = 0
KDVS 081445Z 29006KT M02/M06 A3023 RMK A01 T10231060  RH  076%=      5-min Rain = 0
KDVS 081450Z 29006KT M02/M06 A3024 RMK A01 T10181057  RH  074%=      5-min Rain = 0
KDVS 081455Z 29006KT M01/M05 A3024 RMK A01 T10101054  RH  073%=      5-min Rain = 0
KDVS 081500Z 29005KT M00/M05 A3024 RMK A01 T10021049  RH  071%=      5-min Rain = 0
KDVS 081505Z 29004KT 01/M04 A3024 RMK A01 T00071044  RH  069%=      5-min Rain = 0
KDVS 081510Z 28004KT 02/M04 A3024 RMK A01 T00171040  RH  066%=      5-min Rain = 0
KDVS 081515Z 29004KT 03/M04 A3024 RMK A01 T00251037  RH  064%=      5-min Rain = 0
KDVS 081520Z 28004KT 03/M04 A3025 RMK A01 T00301035  RH  062%=      5-min Rain = 0
KDVS 081525Z 27003KT 04/M03 A3025 RMK A01 T00371032  RH  061%=      5-min Rain = 0
KDVS 081530Z 27002KT 05/M03 A3025 RMK A01 T00471028  RH  059%=      5-min Rain = 0
KDVS 081535Z 26003KT 05/M03 A3025 RMK A01 T00541028  RH  056%=      5-min Rain = 0
KDVS 081540Z 25003KT 06/M03 A3025 RMK A01 T00551029  RH  055%=      5-min Rain = 0
KDVS 081545Z 24003KT 06/M03 A3026 RMK A01 T00591027  RH  055%=      5-min Rain = 0
KDVS 081550Z 23003KT 06/M02 A3026 RMK A01 T00621024  RH  054%=      5-min Rain = 0
KDVS 081555Z 22003KT 07/M02 A3026 RMK A01 T00681023  RH  053%=      5-min Rain = 0
KDVS 081600Z 20003KT 07/M02 A3026 RMK A01 T00721020  RH  052%=      5-min Rain = 0
KDVS 081605Z 19004KT 08/M02 A3026 RMK A01 T00791021  RH  050%=      5-min Rain = 0
KDVS 081610Z 20004KT 08/M02 A3027 RMK A01 T00841021  RH  048%=      5-min Rain = 0
KDVS 081615Z 19005KT 09/M02 A3027 RMK A01 T00881022  RH  046%=      5-min Rain = 0
KDVS 081620Z 19006KT 10/M03 A3027 RMK A01 T00951025  RH  043%=      5-min Rain = 0
KDVS 081625Z 18006KT 10/M03 A3027 RMK A01 T00981028  RH  041%=      5-min Rain = 0
KDVS 081630Z 18007KT 10/M03 A3026 RMK A01 T01011031  RH  040%=      5-min Rain = 0
KDVS 081635Z 18006KT 10/M03 A3026 RMK A01 T01031029  RH  040%=      5-min Rain = 0
KDVS 081640Z 18006KT 11/M03 A3026 RMK A01 T01091030  RH  038%=      5-min Rain = 0
KDVS 081645Z 17006KT 11/M03 A3026 RMK A01 T01131029  RH  037%=      5-min Rain = 0
KDVS 081650Z 18008KT 12/M03 A3026 RMK A01 T01161031  RH  036%=      5-min Rain = 0
KDVS 081655Z 16010KT 12/M03 A3026 RMK A01 T01201032  RH  035%=      5-min Rain = 0
KDVS 081700Z 15009KT 12/M03 A3025 RMK A01 T01221034  RH  034%=      5-min Rain = 0
KDVS 081705Z 15009KT 13/M03 A3025 RMK A01 T01251034  RH  033%=      5-min Rain = 0
KDVS 081710Z 15009KT 13/M03 A3025 RMK A01 T01251034  RH  033%=      5-min Rain = 0
KDVS 081715Z 17009KT 13/M04 A3025 RMK A01 T01251035  RH  033%=      5-min Rain = 0
KDVS 081720Z 16008G15KT 13/M04 A3025 RMK A01 T01261037  RH  032%=      5-min Rain = 0
KDVS 081725Z 17008KT 13/M04 A3024 RMK A01 T01281038  RH  031%=      5-min Rain = 0
KDVS 081730Z 16010KT 13/M04 A3024 RMK A01 T01291037  RH  031%=      5-min Rain = 0
KDVS 081735Z 16009G15KT 13/M04 A3024 RMK A01 T01321036  RH  031%=      5-min Rain = 0
KDVS 081740Z 16009G14KT 13/M04 A3024 RMK A01 T01341038  RH  030%=      5-min Rain = 0
KDVS 081745Z 16009G15KT 14/M04 A3023 RMK A01 T01361041  RH  029%=      5-min Rain = 0
KDVS 081750Z 15011KT 14/M04 A3023 RMK A01 T01371041  RH  029%=      5-min Rain = 0
KDVS 081755Z 16011G20KT 14/M04 A3023 RMK A01 T01401042  RH  028%=      5-min Rain = 0
KDVS 081800Z 16010G15KT 14/M04 A3023 RMK A01 T01391043  RH  028%=      5-min Rain = 0
KDVS 081805Z 18010G15KT 14/M04 A3022 RMK A01 T01421044  RH  027%=      5-min Rain = 0
KDVS 081810Z 17010G15KT 14/M05 A3022 RMK A01 T01411045  RH  027%=      5-min Rain = 0
KDVS 081815Z 17011G16KT 14/M05 A3022 RMK A01 T01421045  RH  027%=      5-min Rain = 0
KDVS 081820Z 17011KT 14/M04 A3022 RMK A01 T01441044  RH  027%=      5-min Rain = 0
KDVS 081825Z 18011KT 15/M04 A3021 RMK A01 T01451040  RH  028%=      5-min Rain = 0
KDVS 081830Z 19009KT 15/M04 A3021 RMK A01 T01491038  RH  028%=      5-min Rain = 0
KDVS 081835Z 17011G16KT 15/M04 A3021 RMK A01 T01501039  RH  027%=      5-min Rain = 0
KDVS 081840Z 19012KT 15/M04 A3021 RMK A01 T01471040  RH  027%=      5-min Rain = 0
KDVS 081845Z 20012KT 15/M04 A302 RMK A01 T01511038  RH  027%=      5-min Rain = 0
KDVS 081850Z 18009KT 15/M04 A302 RMK A01 T01531037  RH  027%=      5-min Rain = 0
KDVS 081855Z 19013G18KT 15/M04 A302 RMK A01 T01531035  RH  027%=      5-min Rain = 0
KDVS 081900Z 19012KT 15/M04 A302 RMK A01 T01521035  RH  027%=      5-min Rain = 0
KDVS 081905Z 19012KT 15/M04 A3019 RMK A01 T01511035  RH  028%=      5-min Rain = 0
KDVS 081910Z 19011G17KT 16/M04 A3019 RMK A01 T01561035  RH  027%=      5-min Rain = 0
KDVS 081915Z 20012KT 16/M04 A3018 RMK A01 T01581037  RH  026%=      5-min Rain = 0
KDVS 081920Z 19012G17KT 16/M04 A3018 RMK A01 T01581037  RH  026%=      5-min Rain = 0
KDVS 081925Z 18012KT 16/M04 A3017 RMK A01 T01591037  RH  026%=      5-min Rain = 0
KDVS 081930Z 20012G17KT 16/M04 A3017 RMK A01 T01601038  RH  026%=      5-min Rain = 0
KDVS 081935Z 19012KT 16/M04 A3016 RMK A01 T01601039  RH  025%=      5-min Rain = 0
KDVS 081940Z 19012KT 17/M04 A3017 RMK A01 T01661038  RH  024%=      5-min Rain = 0
KDVS 081945Z 19011G17KT 16/M04 A3016 RMK A01 T01631039  RH  025%=      5-min Rain = 0
KDVS 081950Z 20012G18KT 17/M04 A3015 RMK A01 T01651038  RH  025%=      5-min Rain = 0
KDVS 081955Z 20014KT 16/M04 A3015 RMK A01 T01631038  RH  025%=      5-min Rain = 0
KDVS 082000Z 20012KT 17/M04 A3015 RMK A01 T01651038  RH  025%=      5-min Rain = 0
KDVS 082005Z 19013KT 16/M04 A3015 RMK A01 T01611039  RH  025%=      5-min Rain = 0
KDVS 082010Z 18013KT 16/M04 A3015 RMK A01 T01591039  RH  026%=      5-min Rain = 0
KDVS 082015Z 19011G16KT 17/M04 A3014 RMK A01 T01661038  RH  025%=      5-min Rain = 0
KDVS 082020Z 20011G16KT 17/M04 A3014 RMK A01 T01661040  RH  024%=      5-min Rain = 0
KDVS 082025Z 18012KT 17/M04 A3013 RMK A01 T01681042  RH  024%=      5-min Rain = 0
KDVS 082030Z 19011G16KT 16/M04 A3013 RMK A01 T01641043  RH  024%=      5-min Rain = 0
KDVS 082035Z 19013KT 16/M04 A3013 RMK A01 T01601044  RH  024%=      5-min Rain = 0
KDVS 082040Z 19010KT 16/M04 A3013 RMK A01 T01581044  RH  025%=      5-min Rain = 0
KDVS 082045Z 19012KT 16/M04 A3013 RMK A01 T01591044  RH  025%=      5-min Rain = 0
KDVS 082050Z 19012KT 16/M04 A3013 RMK A01 T01601044  RH  024%=      5-min Rain = 0
KDVS 082055Z 19011KT 16/M05 A3013 RMK A01 T01621045  RH  024%=      5-min Rain = 0
KDVS 082100Z 19011G16KT 17/M04 A3013 RMK A01 T01651044  RH  024%=      5-min Rain = 0
KDVS 082105Z 19010KT 16/M05 A3014 RMK A01 T01631045  RH  024%=      5-min Rain = 0
KDVS 082110Z 20011KT 17/M04 A3013 RMK A01 T01661043  RH  024%=      5-min Rain = 0
KDVS 082115Z 20012KT 17/M05 A3013 RMK A01 T01701045  RH  023%=      5-min Rain = 0
KDVS 082120Z 19012KT 17/M05 A3012 RMK A01 T01721045  RH  022%=      5-min Rain = 0
KDVS 082125Z 18011G18KT 17/M05 A3012 RMK A01 T01721046  RH  022%=      5-min Rain = 0
KDVS 082130Z 19013KT 18/M05 A3012 RMK A01 T01751046  RH  022%=      5-min Rain = 0
KDVS 082135Z 19012G17KT 18/M05 A3012 RMK A01 T01751047  RH  022%=      5-min Rain = 0
KDVS 082140Z 18012G17KT 17/M05 A3012 RMK A01 T01731047  RH  022%=      5-min Rain = 0
KDVS 082145Z 18013G18KT 18/M05 A3012 RMK A01 T01751047  RH  022%=      5-min Rain = 0
KDVS 082150Z 19012G17KT 18/M05 A3011 RMK A01 T01751047  RH  022%=      5-min Rain = 0
KDVS 082155Z 19013KT 17/M05 A3011 RMK A01 T01731047  RH  022%=      5-min Rain = 0
KDVS 082200Z 19013KT 17/M05 A3012 RMK A01 T01721048  RH  022%=      5-min Rain = 0
KDVS 082205Z 18012KT 17/M05 A3012 RMK A01 T01711048  RH  022%=      5-min Rain = 0
KDVS 082210Z 19012KT 17/M05 A3012 RMK A01 T01701049  RH  022%=      5-min Rain = 0
KDVS 082215Z 20013KT 17/M05 A3012 RMK A01 T01681049  RH  022%=      5-min Rain = 0
KDVS 082220Z 20014KT 17/M05 A3012 RMK A01 T01671049  RH  022%=      5-min Rain = 0
KDVS 082225Z 19013KT 17/M05 A3013 RMK A01 T01661049  RH  023%=      5-min Rain = 0
KDVS 082230Z 20013KT 17/M05 A3013 RMK A01 T01651049  RH  023%=      5-min Rain = 0
KDVS 082235Z 20012G18KT 16/M05 A3013 RMK A01 T01641049  RH  023%=      5-min Rain = 0
KDVS 082240Z 20013KT 16/M05 A3012 RMK A01 T01621049  RH  023%=      5-min Rain = 0
KDVS 082245Z 20012KT 16/M05 A3013 RMK A01 T01611049  RH  023%=      5-min Rain = 0
KDVS 082250Z 18012KT 16/M05 A3013 RMK A01 T01601049  RH  023%=      5-min Rain = 0
KDVS 082255Z 19012KT 16/M05 A3012 RMK A01 T01591049  RH  024%=      5-min Rain = 0
KDVS 082300Z 20012KT 16/M05 A3012 RMK A01 T01591050  RH  024%=      5-min Rain = 0
KDVS 082305Z 18011KT 16/M05 A3012 RMK A01 T01571050  RH  024%=      5-min Rain = 0
KDVS 082310Z 19010KT 16/M05 A3012 RMK A01 T01561050  RH  024%=      5-min Rain = 0
KDVS 082315Z 19011KT 16/M05 A3012 RMK A01 T01561050  RH  024%=      5-min Rain = 0
KDVS 082320Z 18011KT 16/M05 A3012 RMK A01 T01551051  RH  024%=      5-min Rain = 0
KDVS 082325Z 18010KT 15/M05 A3012 RMK A01 T01541051  RH  024%=      5-min Rain = 0
KDVS 082330Z 19009KT 15/M05 A3012 RMK A01 T01521050  RH  025%=      5-min Rain = 0
KDVS 082335Z 19010KT 15/M05 A3012 RMK A01 T01501049  RH  025%=      5-min Rain = 0
KDVS 082340Z 18009KT 15/M05 A3012 RMK A01 T01461049  RH  026%=      5-min Rain = 0
KDVS 082345Z 19009KT 14/M05 A3012 RMK A01 T01431049  RH  026%=      5-min Rain = 0
KDVS 082350Z 19008KT 14/M05 A3012 RMK A01 T01401050  RH  027%=      5-min Rain = 0
KDVS 082355Z 18008KT 14/M05 A3012 RMK A01 T01361050  RH  027%=      5-min Rain = 0
KDVS 090000Z 18008KT 13/M05 A3012 RMK A01 T01311051  RH  028%=      5-min Rain = 0
KDVS 090005Z 17007KT 13/M05 A3012 RMK A01 T01251053  RH  029%=      5-min Rain = 0
KDVS 090010Z 17007KT 12/M06 A3012 RMK A01 T01191055  RH  029%=      5-min Rain = 0
KDVS 090015Z 17007KT 11/M06 A3012 RMK A01 T01141057  RH  030%=      5-min Rain = 0
KDVS 090020Z 18008KT 11/M06 A3012 RMK A01 T01091057  RH  031%=      5-min Rain = 0
KDVS 090025Z 18008KT 11/M06 A3012 RMK A01 T01061057  RH  031%=      5-min Rain = 0
KDVS 090030Z 17008KT 10/M06 A3012 RMK A01 T01031059  RH  032%=      5-min Rain = 0
KDVS 090035Z 17008KT 10/M06 A3012 RMK A01 T00951061  RH  033%=      5-min Rain = 0
KDVS 090040Z 17009KT 09/M06 A3012 RMK A01 T00901061  RH  034%=      5-min Rain = 0
KDVS 090045Z 16009KT 09/M06 A3012 RMK A01 T00881062  RH  034%=      5-min Rain = 0
KDVS 090050Z 16009KT 08/M06 A3012 RMK A01 T00841062  RH  035%=      5-min Rain = 0
KDVS 090055Z 16009KT 08/M06 A3012 RMK A01 T00831061  RH  036%=      5-min Rain = 0
KDVS 090100Z 16008KT 08/M06 A3012 RMK A01 T00821061  RH  036%=      5-min Rain = 0
KDVS 090105Z 17008KT 08/M06 A3012 RMK A01 T00801060  RH  036%=      5-min Rain = 0
KDVS 090110Z 17008KT 08/M06 A3012 RMK A01 T00801059  RH  037%=      5-min Rain = 0
KDVS 090115Z 17008KT 08/M06 A3012 RMK A01 T00811059  RH  037%=      5-min Rain = 0
KDVS 090120Z 17008KT 08/M06 A3012 RMK A01 T00791060  RH  037%=      5-min Rain = 0
KDVS 090125Z 18009KT 08/M06 A3012 RMK A01 T00771059  RH  037%=      5-min Rain = 0
KDVS 090130Z 18008KT 08/M06 A3013 RMK A01 T00761060  RH  038%=      5-min Rain = 0
KDVS 090135Z 18008KT 08/M06 A3013 RMK A01 T00751059  RH  038%=      5-min Rain = 0
KDVS 090140Z 18008KT 08/M06 A3013 RMK A01 T00751057  RH  039%=      5-min Rain = 0
KDVS 090145Z 18009KT 08/M06 A3013 RMK A01 T00761057  RH  038%=      5-min Rain = 0
KDVS 090150Z 18008KT 08/M06 A3013 RMK A01 T00771058  RH  038%=      5-min Rain = 0
KDVS 090155Z 18008KT 07/M06 A3013 RMK A01 T00741059  RH  038%=      5-min Rain = 0
KDVS 090200Z 18009KT 07/M06 A3013 RMK A01 T00701058  RH  040%=      5-min Rain = 0
KDVS 090205Z 19009KT 07/M06 A3013 RMK A01 T00701060  RH  039%=      5-min Rain = 0
KDVS 090210Z 19008KT 07/M06 A3013 RMK A01 T00691061  RH  039%=      5-min Rain = 0
KDVS 090215Z 18008KT 07/M06 A3013 RMK A01 T00671061  RH  040%=      5-min Rain = 0
KDVS 090220Z 17008KT 07/M06 A3013 RMK A01 T00671060  RH  040%=      5-min Rain = 0
KDVS 090225Z 18008KT 07/M06 A3013 RMK A01 T00661060  RH  040%=      5-min Rain = 0
KDVS 090230Z 17008KT 07/M06 A3013 RMK A01 T00671060  RH  040%=      5-min Rain = 0
KDVS 090235Z 17008KT 07/M06 A3013 RMK A01 T00661060  RH  040%=      5-min Rain = 0
KDVS 090240Z 17008KT 07/M06 A3013 RMK A01 T00651061  RH  040%=      5-min Rain = 0
KDVS 090245Z 18008KT 06/M06 A3013 RMK A01 T00631061  RH  041%=      5-min Rain = 0
KDVS 090250Z 17008KT 06/M06 A3014 RMK A01 T00621060  RH  041%=      5-min Rain = 0
KDVS 090255Z 18008KT 06/M06 A3014 RMK A01 T00621060  RH  041%=      5-min Rain = 0
KDVS 090300Z 18008KT 06/M06 A3014 RMK A01 T00621060  RH  041%=      5-min Rain = 0
KDVS 090305Z 18008KT 06/M06 A3014 RMK A01 T00621060  RH  041%=      5-min Rain = 0
KDVS 090310Z 19008KT 06/M06 A3014 RMK A01 T00601061  RH  041%=      5-min Rain = 0
KDVS 090315Z 19008KT 06/M06 A3014 RMK A01 T00581062  RH  042%=      5-min Rain = 0
KDVS 090320Z 19008KT 06/M06 A3015 RMK A01 T00571064  RH  042%=      5-min Rain = 0
KDVS 090325Z 19008KT 05/M06 A3015 RMK A01 T00541064  RH  042%=      5-min Rain = 0
KDVS 090330Z 18008KT 05/M06 A3014 RMK A01 T00531063  RH  043%=      5-min Rain = 0
KDVS 090335Z 18007KT 05/M06 A3014 RMK A01 T00531063  RH  043%=      5-min Rain = 0
KDVS 090340Z 18007KT 05/M06 A3014 RMK A01 T00531063  RH  043%=      5-min Rain = 0
KDVS 090345Z 19007KT 05/M06 A3014 RMK A01 T00501063  RH  044%=      5-min Rain = 0
KDVS 090350Z 19008KT 05/M06 A3014 RMK A01 T00491063  RH  044%=      5-min Rain = 0
KDVS 090355Z 19007KT 05/M06 A3014 RMK A01 T00491063  RH  044%=      5-min Rain = 0
KDVS 090400Z 20007KT 05/M06 A3015 RMK A01 T00501064  RH  044%=      5-min Rain = 0
KDVS 090405Z 20007KT 05/M06 A3015 RMK A01 T00511063  RH  044%=      5-min Rain = 0
KDVS 090410Z 20007KT 05/M06 A3015 RMK A01 T00491064  RH  044%=      5-min Rain = 0
KDVS 090415Z 20008KT 05/M06 A3015 RMK A01 T00481063  RH  044%=      5-min Rain = 0
KDVS 090420Z 20008KT 05/M06 A3015 RMK A01 T00491063  RH  044%=      5-min Rain = 0
KDVS 090425Z 19008KT 05/M06 A3014 RMK A01 T00481063  RH  044%=      5-min Rain = 0
KDVS 090430Z 19008KT 05/M06 A3014 RMK A01 T00471063  RH  045%=      5-min Rain = 0
KDVS 090435Z 20008KT 05/M06 A3014 RMK A01 T00461063  RH  045%=      5-min Rain = 0
KDVS 090440Z 20008KT 05/M06 A3014 RMK A01 T00451062  RH  046%=      5-min Rain = 0
KDVS 090445Z 20007KT 05/M06 A3014 RMK A01 T00481062  RH  045%=      5-min Rain = 0
KDVS 090450Z 20007KT 05/M06 A3014 RMK A01 T00491062  RH  045%=      5-min Rain = 0
KDVS 090455Z 19006KT 05/M06 A3014 RMK A01 T00491062  RH  045%=      5-min Rain = 0
KDVS 090500Z 19006KT 05/M06 A3013 RMK A01 T00491061  RH  045%=      5-min Rain = 0
KDVS 090505Z 19007KT 05/M06 A3013 RMK A01 T00511060  RH  045%=      5-min Rain = 0
KDVS 090510Z 18007KT 05/M06 A3013 RMK A01 T00511060  RH  045%=      5-min Rain = 0
KDVS 090515Z 19007KT 05/M06 A3013 RMK A01 T00511058  RH  045%=      5-min Rain = 0
KDVS 090520Z 19008KT 05/M06 A3013 RMK A01 T00521059  RH  045%=      5-min Rain = 0
KDVS 090525Z 19009KT 06/M06 A3013 RMK A01 T00551056  RH  045%=      5-min Rain = 0
KDVS 090530Z 19008KT 06/M06 A3013 RMK A01 T00551056  RH  044%=      5-min Rain = 0
KDVS 090535Z 19008KT 06/M06 A3013 RMK A01 T00551056  RH  045%=      5-min Rain = 0
KDVS 090540Z 19007KT 06/M06 A3013 RMK A01 T00551056  RH  045%=      5-min Rain = 0
KDVS 090545Z 19007KT 05/M06 A3013 RMK A01 T00541056  RH  045%=      5-min Rain = 0
KDVS 090550Z 19007KT 05/M06 A3012 RMK A01 T00531056  RH  045%=      5-min Rain = 0
KDVS 090555Z 19006KT 05/M06 A3012 RMK A01 T00521056  RH  046%=      5-min Rain = 0

Page generated in 0.0092 seconds.